METAR AND TAF INFORMATION
METAR FOR LEBL
ADDS - METARS form results

(1403 UTC 20 April 2018)
Data provider http://aviationweather.gov/adds/metars/
 
METAR text: LEBL 201330Z 18006KT 130V220 9999 FEW040 19/12 Q1023 NOSIG
Conditions at: LEBL (BARCELONA AIRPOR, ES) observed 1330 UTC 20 April 2018
Temperature: 19.0°C (66°F)
Dewpoint: 12.0°C (54°F) [RH = 64%]
Pressure (altimeter): 30.21 inches Hg (1023.0 mb)
Winds: from the S (180 degrees) at 7 MPH (6 knots; 3.1 m/s)
Visibility: 6 or more miles (10+ km)
Ceiling: at least 12,000 feet AGL
Clouds: few clouds at 4000 feet AGL
Weather: no significant weather observed at this time

Forecast for: LEBL (BARCELONA AIRPOR, ES)
Text: TAF LEBL 201100Z 2012/2112 09010KT 9999 FEW040 TX20/2012Z TN12/2106Z
Forecast period: 1200 to 2100 UTC 20 April 2018
Forecast type: FROM: standard forecast or significant change
Winds: from the E (90 degrees) at 12 MPH (10 knots; 5.2 m/s)
Visibility: 6 or more miles (10+ km)
Clouds: few clouds at 4000 feet AGL
Weather: no significant weather forecast for this period
Forecast for: LEBL (BARCELONA AIRPOR, ES)
Text: TAF LEBL 201100Z 2012/2112 09010KT 9999 FEW040 TX20/2012Z TN12/2106Z
Forecast period: 1200 to 2100 UTC 20 April 2018
Forecast type: FROM: standard forecast or significant change
Winds: from the E (90 degrees) at 12 MPH (10 knots; 5.2 m/s)
Visibility: 6 or more miles (10+ km)
Clouds: few clouds at 4000 feet AGL
Weather: no significant weather forecast for this period
Forecast for: LEBL (BARCELONA AIRPOR, ES)
Text: TAF LEBL 201100Z 2012/2112 09010KT 9999 FEW040 TX20/2012Z TN12/2106Z
Forecast period: 1200 to 2000 UTC 20 April 2018
Forecast type: TEMPORARY: The following changes expected for less than half the time period
Winds: from the SE (140 degrees) at 10 MPH (9 knots; 4.7 m/s)
Weather: no significant weather forecast for this period
Forecast for: LEBL (BARCELONA AIRPOR, ES)
Text: TAF LEBL 201100Z 2012/2112 09010KT 9999 FEW040 TX20/2012Z TN12/2106Z
Forecast period: 1200 to 2000 UTC 20 April 2018
Forecast type: TEMPORARY: The following changes expected for less than half the time period
Winds: from the SE (140 degrees) at 10 MPH (9 knots; 4.7 m/s)
Weather: no significant weather forecast for this period
Forecast for: LEBL (BARCELONA AIRPOR, ES)
Text: TAF LEBL 201100Z 2012/2112 09010KT 9999 FEW040 TX20/2012Z TN12/2106Z
Forecast period: 2100 UTC 20 April 2018 to 0900 UTC 21 April 2018
Forecast type: BECOMING: Conditions expected to become as follows by 2300 UTC 20 April 2018
Winds: from the NNW (330 degrees) at 6 MPH (5 knots; 2.6 m/s)
Visibility: 6 or more miles (10+ km)
Clouds: few clouds at 4000 feet AGL
Weather: no significant weather forecast for this period
Forecast for: LEBL (BARCELONA AIRPOR, ES)
Text: TAF LEBL 201100Z 2012/2112 09010KT 9999 FEW040 TX20/2012Z TN12/2106Z
Forecast period: 2100 UTC 20 April 2018 to 0900 UTC 21 April 2018
Forecast type: BECOMING: Conditions expected to become as follows by 2300 UTC 20 April 2018
Winds: from the NNW (330 degrees) at 6 MPH (5 knots; 2.6 m/s)
Visibility: 6 or more miles (10+ km)
Clouds: few clouds at 4000 feet AGL
Weather: no significant weather forecast for this period
Forecast for: LEBL (BARCELONA AIRPOR, ES)
Text: TAF LEBL 201100Z 2012/2112 09010KT 9999 FEW040 TX20/2012Z TN12/2106Z
Forecast period: 1900 UTC 20 April 2018 to 0800 UTC 21 April 2018
Forecast type: TEMPORARY: The following changes expected for less than half the time period
Visibility: 1.86 miles (2.99 km)
Ceiling: 800 feet AGL
Clouds: broken clouds at 800 feet AGL
Weather: BR  (mist)
Forecast for: LEBL (BARCELONA AIRPOR, ES)
Text: TAF LEBL 201100Z 2012/2112 09010KT 9999 FEW040 TX20/2012Z TN12/2106Z
Forecast period: 1900 UTC 20 April 2018 to 0800 UTC 21 April 2018
Forecast type: TEMPORARY: The following changes expected for less than half the time period
Visibility: 1.86 miles (2.99 km)
Ceiling: 800 feet AGL
Clouds: broken clouds at 800 feet AGL
Weather: BR  (mist)
Forecast for: LEBL (BARCELONA AIRPOR, ES)
Text: TAF LEBL 201100Z 2012/2112 09010KT 9999 FEW040 TX20/2012Z TN12/2106Z
Forecast period: 0900 to 1200 UTC 21 April 2018
Forecast type: BECOMING: Conditions expected to become as follows by 1100 UTC 21 April 2018
Winds: from the SSW (200 degrees) at 10 MPH (9 knots; 4.7 m/s)
Visibility: 6 or more miles (10+ km)
Clouds: few clouds at 4000 feet AGL
Weather: no significant weather forecast for this period
Forecast for: LEBL (BARCELONA AIRPOR, ES)
Text: TAF LEBL 201100Z 2012/2112 09010KT 9999 FEW040 TX20/2012Z TN12/2106Z
Forecast period: 0900 to 1200 UTC 21 April 2018
Forecast type: BECOMING: Conditions expected to become as follows by 1100 UTC 21 April 2018
Winds: from the SSW (200 degrees) at 10 MPH (9 knots; 4.7 m/s)
Visibility: 6 or more miles (10+ km)
Clouds: few clouds at 4000 feet AGL
Weather: no significant weather forecast for this period

 AIRPORT MAP

 RUNWAY INFORMATION
Runway 02 Runway length 8333 ft Runway width 148 ft
Runway elevation 7 ft Runway displaced threshold 131 ft Runway heading 19
Runway 20 Runway length 8333 ft Runway width 148 ft
Runway elevation 12 ft Runway displaced threshold 0 ft Runway heading 199
Runway 07L Runway length 11654 ft Runway width 148 ft
Runway elevation 8 ft Runway displaced threshold 295 ft Runway heading 66
Runway 25R Runway length 11654 ft Runway width 148 ft
Runway elevation 10 ft Runway displaced threshold 0 ft Runway heading 246
Runway 07R Runway length 8727 ft Runway width 197 ft
Runway elevation 8 ft Runway displaced threshold 0 ft Runway heading 66
Runway 25L Runway length 8727 ft Runway width 197 ft
Runway elevation 8 ft Runway displaced threshold 0 ft Runway heading 246

 AIRPORT FREQUENCIES
Type APP Name APP Frequency 119.1 MHZ
Type ATIS Name ATIS Frequency 118.65 MHZ
Type CLD Name CLNC DEL Frequency 121.8 MHZ
Type GND Name GND Frequency 121.65 MHZ
Type TWR Name TWR Frequency 118.1 MHZ

 AIRPORT NEAR NAVIGATION AIDS
Type VOR-DME Name Barcelona Frequency 116700 KHZ
Type VOR-DME Name El Prat Frequency 114300 KHZ
Type VOR-DME Name Sabadell Frequency 112000 KHZ
Type NDB Name Villanueva Frequency 380 KHZ



Powered by Virtual Airlines Manager [v2.6.2]